Map

Track Data

SID SEASON NUMBER BASIN SUBBASIN NAME ISO_TIME NATURE LAT LON WMO_WIND WMO_PRES WMO_AGENCY TRACK_TYPE DIST2LAND LANDFALL IFLAG USA_AGENCY USA_ATCF_ID USA_LAT USA_LON USA_RECORD USA_STATUS USA_WIND USA_PRES USA_SSHS USA_R34_NE USA_R34_SE USA_R34_SW USA_R34_NW USA_R50_NE USA_R50_SE USA_R50_SW USA_R50_NW USA_R64_NE USA_R64_SE USA_R64_SW USA_R64_NW USA_POCI USA_ROCI USA_RMW USA_EYE TOKYO_LAT TOKYO_LON TOKYO_GRADE TOKYO_WIND TOKYO_PRES TOKYO_R50_DIR TOKYO_R50_LONG TOKYO_R50_SHORT TOKYO_R30_DIR TOKYO_R30_LONG TOKYO_R30_SHORT TOKYO_LAND CMA_LAT CMA_LON CMA_CAT CMA_WIND CMA_PRES HKO_LAT HKO_LON HKO_CAT HKO_WIND HKO_PRES NEWDELHI_LAT NEWDELHI_LON NEWDELHI_GRADE NEWDELHI_WIND NEWDELHI_PRES NEWDELHI_CI NEWDELHI_DP NEWDELHI_POCI REUNION_LAT REUNION_LON REUNION_TYPE REUNION_WIND REUNION_PRES REUNION_TNUM REUNION_CI REUNION_RMW REUNION_R34_NE REUNION_R34_SE REUNION_R34_SW REUNION_R34_NW REUNION_R50_NE REUNION_R50_SE REUNION_R50_SW REUNION_R50_NW REUNION_R64_NE REUNION_R64_SE REUNION_R64_SW REUNION_R64_NW BOM_LAT BOM_LON BOM_TYPE BOM_WIND BOM_PRES BOM_TNUM BOM_CI BOM_RMW BOM_R34_NE BOM_R34_SE BOM_R34_SW BOM_R34_NW BOM_R50_NE BOM_R50_SE BOM_R50_SW BOM_R50_NW BOM_R64_NE BOM_R64_SE BOM_R64_SW BOM_R64_NW BOM_ROCI BOM_POCI BOM_EYE BOM_POS_METHOD BOM_PRES_METHOD NADI_LAT NADI_LON NADI_CAT NADI_WIND NADI_PRES WELLINGTON_LAT WELLINGTON_LON WELLINGTON_WIND WELLINGTON_PRES DS824_LAT DS824_LON DS824_STAGE DS824_WIND DS824_PRES TD9636_LAT TD9636_LON TD9636_STAGE TD9636_WIND TD9636_PRES TD9635_LAT TD9635_LON TD9635_WIND TD9635_PRES TD9635_ROCI NEUMANN_LAT NEUMANN_LON NEUMANN_CLASS NEUMANN_WIND NEUMANN_PRES MLC_LAT MLC_LON MLC_CLASS MLC_WIND MLC_PRES USA_GUST BOM_GUST BOM_GUST_PER REUNION_GUST REUNION_GUST_PER USA_SEAHGT USA_SEARAD_NE USA_SEARAD_SE USA_SEARAD_SW USA_SEARAD_NW STORM_SPEED STORM_DIR
1947316N09141 1947 92 WP MM FLORA 1947-11-12 00:00:00 NR 8.50000 141.000 main 1173 1160 __________O___ -1 8.50000 141.000 2 11 268
1947316N09141 1947 92 WP MM FLORA 1947-11-12 03:00:00 NR 8.47858 140.427 main 1155 1132 __________P___ -1 8.47858 140.427 2 11 268
1947316N09141 1947 92 WP MM FLORA 1947-11-12 06:00:00 NR 8.45543 139.843 main 1128 1097 __________P___ -1 8.45543 139.843 2 12 268
1947316N09141 1947 92 WP MM FLORA 1947-11-12 09:00:00 NR 8.42958 139.237 main 1093 1072 __________P___ -1 8.42958 139.237 2 12 267
1947316N09141 1947 92 WP MM FLORA 1947-11-12 12:00:00 NR 8.40000 138.600 main 1072 1053 __________O___ -1 8.40000 138.600 2 13 267
1947316N09141 1947 92 WP MM FLORA 1947-11-12 15:00:00 NR 8.36836 137.924 main 1051 1025 __________P___ -1 8.36836 137.924 2 14 268
1947316N09141 1947 92 WP MM FLORA 1947-11-12 18:00:00 NR 8.34739 137.222 main 1024 1022 __________P___ -1 8.34739 137.222 2 14 269
1947316N09141 1947 92 WP MM FLORA 1947-11-12 21:00:00 NR 8.35270 136.509 main 1024 997 __________P___ -1 8.35270 136.509 2 15 266
1947316N09141 1947 92 WP MM FLORA 1947-11-13 00:00:00 TS 8.22857 135.671 main 997 939 O________OOO__ jtwc_wp WP231947 8.00000 135.500 70 1 8.00000 135.500 TC 70 8.40000 135.800 7 8.00000 135.500 70 988 300 15 271
1947316N09141 1947 92 WP MM FLORA 1947-11-13 03:00:00 TS 8.37125 135.032 main 928 865 P________PPP__ WP231947 8.30006 134.975 85 2 8.30006 134.975 TC 85 8.47804 135.118 7 8.30006 134.975 85 984 360 13 287
1947316N09141 1947 92 WP MM FLORA 1947-11-13 06:00:00 TS 8.60061 134.413 main 865 802 O________OPO__ jtwc_wp WP231947 8.60000 134.400 100 3 8.60000 134.400 TC 100 8.60197 134.442 7 8.60000 134.400 100 981 420 14 292
1947316N09141 1947 92 WP MM FLORA 1947-11-13 09:00:00 TS 8.86876 133.755 main 804 732 P________PPP__ WP231947 8.90003 133.750 100 3 8.90003 133.750 TC 100 8.77492 133.771 7 8.90003 133.750 100 978 420 14 293
1947316N09141 1947 92 WP MM FLORA 1947-11-13 12:00:00 TS 9.15000 133.100 main 735 687 O________OOO__ jtwc_wp WP231947 9.20000 133.100 100 3 9.20000 133.100 TC 100 9.00000 133.100 7 9.20000 133.100 100 975 420 13 295
1947316N09141 1947 92 WP MM FLORA 1947-11-13 15:00:00 TS 9.43267 132.522 main 676 634 P________PPP__ WP231947 9.49227 132.550 100 3 9.49227 132.550 TC 100 9.25387 132.437 7 9.49227 132.550 100 973 420 13 297
1947316N09141 1947 92 WP MM FLORA 1947-11-13 18:00:00 TS 9.73982 131.943 main 623 567 O________OPO__ jtwc_wp WP231947 9.80000 132.000 100 3 9.80000 132.000 TC 100 9.55927 131.772 7 9.80000 132.000 100 972 420 14 299
1947316N09141 1947 92 WP MM FLORA 1947-11-13 21:00:00 TS 10.0957 131.287 main 567 511 P________PPP__ WP231947 10.1575 131.350 100 3 10.1575 131.350 TC 100 9.91004 131.096 7 10.1575 131.350 100 970 390 15 299
1947316N09141 1947 92 WP MM FLORA 1947-11-14 00:00:00 TS 10.4500 130.625 main 503 459 O________OOO__ jtwc_wp WP231947 10.5000 130.700 100 3 10.5000 130.700 TC 100 10.3000 130.400 7 10.5000 130.700 100 969 360 14 298
1947316N09141 1947 92 WP MM FLORA 1947-11-14 03:00:00 TS 10.7524 130.042 main 453 404 P________PPP__ WP231947 10.7571 130.165 105 3 10.7571 130.165 TC 105 10.7381 129.676 7 10.7571 130.165 105 967 360 13 297
1947316N09141 1947 92 WP MM FLORA 1947-11-14 06:00:00 TS 11.0517 129.433 main 393 329 O________OPO__ jtwc_wp WP231947 11.0000 129.600 110 3 11.0000 129.600 TC 110 11.2070 128.930 7 11.0000 129.600 110 966 360 14 296
1947316N09141 1947 92 WP MM FLORA 1947-11-14 09:00:00 TS 11.3704 128.725 main 319 252 P________PPP__ WP231947 11.2698 128.910 110 3 11.2698 128.910 TC 110 11.6724 128.170 7 11.2698 128.910 110 964 390 16 294
1947316N09141 1947 92 WP MM FLORA 1947-11-14 12:00:00 TS 11.7250 127.925 main 242 174 O________OOO__ jtwc_wp WP231947 11.6000 128.100 110 3 11.6000 128.100 TC 110 12.1000 127.400 7 11.6000 128.100 110 963 420 18 294
1947316N09141 1947 92 WP MM FLORA 1947-11-14 15:00:00 TS 12.1156 127.029 main 163 83 P________PPP__ WP231947 12.0051 127.172 105 3 12.0051 127.172 TC 105 12.4472 126.599 7 12.0051 127.172 105 964 420 20 295
1947316N09141 1947 92 WP MM FLORA 1947-11-14 18:00:00 TS 12.5632 126.099 main 79 49 O________OPO__ jtwc_wp WP231947 12.5000 126.200 100 3 12.5000 126.200 TC 100 12.7526 125.797 7 12.5000 126.200 100 965 420 20 299
1947316N09141 1947 92 WP MM FLORA 1947-11-14 21:00:00 TS 13.0828 125.208 main 67 10 P________PPP__ WP231947 13.0998 125.270 100 3 13.0998 125.270 TC 100 13.0317 125.021 7 13.0998 125.270 100 966 450 20 302
1947316N09141 1947 92 WP MM FLORA 1947-11-15 00:00:00 TS 13.6000 124.375 main 10 0 O________OOO__ jtwc_wp WP231947 13.7000 124.400 100 3 13.7000 124.400 TC 100 13.3000 124.300 3 13.7000 124.400 100 968 480 18 301
1947316N09141 1947 92 WP MM FLORA 1947-11-15 03:00:00 TS 14.0100 123.643 main 11 11 P________PPP__ WP231947 14.1569 123.642 97 3 14.1569 123.642 TC 97 13.5691 123.647 3 14.1569 123.642 97 969 480 16 300
1947316N09141 1947 92 WP MM FLORA 1947-11-15 06:00:00 TS 14.4085 122.938 main 22 22 O________OPO__ jtwc_wp WP231947 14.6000 122.900 95 2 14.6000 122.900 TC 95 13.8340 123.052 3 14.6000 122.900 95 971 480 17 301
1947316N09141 1947 92 WP MM FLORA 1947-11-15 09:00:00 TS 14.8951 122.131 main 48 0 P________PPP__ WP231947 15.1579 122.006 85 2 15.1579 122.006 TC 85 14.1069 122.506 3 15.1579 122.006 85 972 510 18 303
1947316N09141 1947 92 WP MM FLORA 1947-11-15 12:00:00 TS 15.3750 121.400 main 0 0 O________OOO__ jtwc_wp WP231947 15.7000 121.200 75 1 15.7000 121.200 TC 75 14.4000 122.000 4 15.7000 121.200 75 974 540 15 306
1947316N09141 1947 92 WP MM FLORA 1947-11-15 15:00:00 TS 15.7577 120.883 main 0 0 P________PPP__ WP231947 16.1144 120.689 75 1 16.1144 120.689 TC 75 14.6877 121.465 4 16.1144 120.689 75 975 540 12 310
1947316N09141 1947 92 WP MM FLORA 1947-11-15 18:00:00 TS 16.1256 120.468 main 0 0 O________OPO__ jtwc_wp WP231947 16.5000 120.300 75 1 16.5000 120.300 TC 75 15.0025 120.972 4 16.5000 120.300 75 976 540 12 313
1947316N09141 1947 92 WP MM FLORA 1947-11-15 21:00:00 TS 16.5484 120.012 main 24 24 P________PPP__ WP231947 16.9425 119.835 72 1 16.9425 119.835 TC 72 15.3660 120.543 4 16.9425 119.835 72 977 480 12 316
1947316N09141 1947 92 WP MM FLORA 1947-11-16 00:00:00 TS 17.0000 119.600 main 81 81 O________OOO__ jtwc_wp WP231947 17.4000 119.400 70 1 17.4000 119.400 TC 70 15.8000 120.200 4 17.4000 119.400 70 979 420 12 320
1947316N09141 1947 92 WP MM FLORA 1947-11-16 03:00:00 TS 17.4622 119.203 main 117 117 P________PPP__ WP231947 17.8350 118.968 70 1 17.8350 118.968 TC 70 16.3439 119.907 4 17.8350 118.968 70 980 420 12 327
1947316N09141 1947 92 WP MM FLORA 1947-11-16 06:00:00 TS 17.9636 118.951 main 144 144 O________OPO__ jtwc_wp WP231947 18.3000 118.700 70 1 18.3000 118.700 TC 70 16.9544 119.706 4 18.3000 118.700 70 981 420 11 345
1947316N09141 1947 92 WP MM FLORA 1947-11-16 09:00:00 TS 18.5398 118.899 main 174 174 P________PPP__ WP231947 18.8571 118.665 70 1 18.8571 118.665 TC 70 17.5877 119.601 4 18.8571 118.665 70 982 450 12 6
1947316N09141 1947 92 WP MM FLORA 1947-11-16 12:00:00 TS 19.1000 119.075 main 176 176 O________OOO__ jtwc_wp WP231947 19.4000 118.900 70 1 19.4000 118.900 TC 70 18.2000 119.600 4 19.4000 118.900 70 984 480 11 24
1947316N09141 1947 92 WP MM FLORA 1947-11-16 15:00:00 TS 19.5811 119.395 main 184 173 P________PPP__ WP231947 19.8672 119.337 67 1 19.8672 119.337 TC 67 18.7225 119.568 4 19.8672 119.337 67 985 480 12 43
1947316N09141 1947 92 WP MM FLORA 1947-11-16 18:00:00 TS 19.9546 119.913 main 182 162 O________OPO__ jtwc_wp WP231947 20.2000 120.000 65 1 20.2000 120.000 TC 65 19.2186 119.652 4 20.2000 120.000 65 986 480 13 66
1947316N09141 1947 92 WP MM FLORA 1947-11-16 21:00:00 TS 20.0845 120.617 main 169 167 P________PPP__ WP231947 20.2108 120.852 62 0 20.2108 120.852 TC 62 19.7055 119.910 4 20.2108 120.852 62 987 450 14 74
1947316N09141 1947 92 WP MM FLORA 1947-11-17 00:00:00 TS 20.3500 121.375 main 175 144 O________OOO__ jtwc_wp WP231947 20.4000 121.700 60 0 20.4000 121.700 TC 60 20.2000 120.400 4 20.4000 121.700 60 988 420 17 51
1947316N09141 1947 92 WP MM FLORA 1947-11-17 03:00:00 TS 21.1490 122.035 main 144 141 P________PPP__ WP231947 21.2796 122.317 55 0 21.2796 122.317 TC 55 20.7575 121.192 4 21.2796 122.317 55 989 450 22 34
1947316N09141 1947 92 WP MM FLORA 1947-11-17 06:00:00 TS 22.1286 122.653 main 174 160 O________OPO__ jtwc_wp WP231947 22.4000 122.800 50 0 22.4000 122.800 TC 50 21.3145 122.213 4 22.4000 122.800 50 990 480 21 30
1947316N09141 1947 92 WP MM FLORA 1947-11-17 09:00:00 TS 23.0009 123.178 main 184 184 P________PPP__ WP231947 23.3884 123.119 47 0 23.3884 123.119 TC 47 21.8386 123.352 4 23.3884 123.119 47 991 450 19 34
1947316N09141 1947 92 WP MM FLORA 1947-11-17 12:00:00 TS 23.7250 123.825 main 212 212 O________OOO__ jtwc_wp WP231947 24.2000 123.600 45 0 24.2000 123.600 TC 45 22.3000 124.500 4 24.2000 123.600 45 993 420 19 51
1947316N09141 1947 92 WP MM FLORA 1947-11-17 15:00:00 TS 24.1930 124.800 main 295 295 P________PPP__ WP231947 24.7129 124.572 55 0 24.7129 124.572 TC 55 22.6335 125.483 4 24.7129 124.572 55 988 420 21 69
1947316N09141 1947 92 WP MM FLORA 1947-11-17 18:00:00 TS 24.4778 125.963 main 407 407 O________OPO__ jtwc_wp WP231947 25.0000 125.800 65 1 25.0000 125.800 TC 65 22.9112 126.450 4 25.0000 125.800 65 983 420 21 77
1947316N09141 1947 92 WP MM FLORA 1947-11-17 21:00:00 TS 24.6779 127.042 main 505 505 P________PPP__ WP231947 25.1760 126.917 72 1 25.1760 126.917 TC 72 23.1834 127.417 4 25.1760 126.917 72 978 360 22 80
1947316N09141 1947 92 WP MM FLORA 1947-11-18 00:00:00 TS 24.8500 128.325 main 634 635 O________OOO__ jtwc_wp WP231947 25.3000 128.300 80 1 25.3000 128.300 TC 80 23.5000 128.400 7 25.3000 128.300 80 973 300 28 82
1947316N09141 1947 92 WP MM FLORA 1947-11-18 03:00:00 TS 25.0767 130.057 main 661 639 P________PPP__ WP231947 25.4669 130.271 70 1 25.4669 130.271 TC 70 23.9064 129.414 7 25.4669 130.271 70 977 300 32 81
1947316N09141 1947 92 WP MM FLORA 1947-11-18 06:00:00 TS 25.3439 131.807 main 645 632 O________OPO__ jtwc_wp WP231947 25.7000 132.300 60 0 25.7000 132.300 TC 60 24.3645 130.451 7 25.7000 132.300 60 981 300 29 77
1947316N09141 1947 92 WP MM FLORA 1947-11-18 09:00:00 TS 25.7361 133.225 main 640 633 P________PPP__ WP231947 26.0903 133.913 57 0 26.0903 133.913 TC 57 24.8654 131.512 7 26.0606 133.895 57 985 270 25 71
1947316N09141 1947 92 WP MM FLORA 1947-11-18 12:00:00 TS 26.1615 134.400 main 645 645 O________OOO__ jtwc_wp WP231947 26.5000 135.200 55 0 26.5000 135.200 TC 55 25.4000 132.600 7 26.5000 135.200 55 989 240 21 69
1947316N09141 1947 92 WP MM FLORA 1947-11-18 15:00:00 TS 26.5005 135.401 main 670 670 P________PP___ WP231947 26.7709 136.244 47 0 26.7709 136.244 TC 47 25.9596 133.716 7 19 68
1947316N09141 1947 92 WP MM FLORA 1947-11-18 18:00:00 TS 26.8733 136.416 main 697 697 O________OP___ jtwc_wp WP231947 27.0000 137.000 40 0 27.0000 137.000 TC 40 26.5353 134.857 7 18 66
1947316N09141 1947 92 WP MM FLORA 1947-11-18 21:00:00 TS 27.2221 137.193 main 704 682 P________PP___ WP231947 27.2479 137.486 37 0 27.2479 137.486 TC 37 27.1185 136.020 7 15 64
1947316N09141 1947 92 WP MM FLORA 1947-11-19 00:00:00 TS 27.5222 137.911 main 688 680 O________OO___ jtwc_wp WP231947 27.5000 138.000 35 0 27.5000 138.000 TC 35 27.7000 137.200 7 16 70
1947316N09141 1947 92 WP MM FLORA 1947-11-19 03:00:00 TS 27.7731 138.924 main 691 691 P________P____ WP231947 27.7731 138.924 35 0 27.7731 138.924 TC 35 7 19 76
1947316N09141 1947 92 WP MM FLORA 1947-11-19 06:00:00 TS 28.0000 140.000 main 723 723 O________O____ jtwc_wp WP231947 28.0000 140.000 35 0 28.0000 140.000 TC 35 7 19 79
1947316N09141 1947 92 WP MM FLORA 1947-11-19 09:00:00 TS 28.1306 141.025 main 754 752 P________P____ WP231947 28.1306 141.025 35 0 28.1306 141.025 TC 35 7 18 84
1947316N09141 1947 92 WP MM FLORA 1947-11-19 12:00:00 TS 28.2000 142.000 main 773 O________O____ jtwc_wp WP231947 28.2000 142.000 35 0 28.2000 142.000 TC 35 17 85

Digital Typhoon Data and Search

About IBTrACS Database

This database is a web-friendly format of International Best Track Archive for Climate Stewardship (IBTrACS), a global best track data archive curated by NOAA dating back to 1842.

Updated: 2021-10-21